sensor_id;sensor_type;location;lat;lon;timestamp;P1;durP1;ratioP1;P2;durP2;ratioP2
62880;SDS011;48969;49.934;8.596;2023-05-14T00:02:05;9.38;;;4.95;;
62880;SDS011;48969;49.934;8.596;2023-05-14T00:04:30;12.40;;;11.20;;
62880;SDS011;48969;49.934;8.596;2023-05-14T00:06:55;11.65;;;10.55;;
62880;SDS011;48969;49.934;8.596;2023-05-14T00:09:20;12.73;;;10.23;;
62880;SDS011;48969;49.934;8.596;2023-05-14T00:11:46;13.07;;;10.10;;
62880;SDS011;48969;49.934;8.596;2023-05-14T00:14:11;11.23;;;10.02;;
62880;SDS011;48969;49.934;8.596;2023-05-14T00:16:36;10.57;;;9.57;;
62880;SDS011;48969;49.934;8.596;2023-05-14T00:19:02;9.97;;;9.00;;
62880;SDS011;48969;49.934;8.596;2023-05-14T00:21:27;6.32;;;5.72;;
62880;SDS011;48969;49.934;8.596;2023-05-14T00:23:52;10.50;;;9.60;;
62880;SDS011;48969;49.934;8.596;2023-05-14T00:26:17;9.80;;;8.90;;
62880;SDS011;48969;49.934;8.596;2023-05-14T00:28:44;2.67;;;2.47;;
62880;SDS011;48969;49.934;8.596;2023-05-14T00:31:09;2.60;;;1.95;;
62880;SDS011;48969;49.934;8.596;2023-05-14T00:33:35;11.23;;;9.52;;
62880;SDS011;48969;49.934;8.596;2023-05-14T00:36:00;9.87;;;8.97;;
62880;SDS011;48969;49.934;8.596;2023-05-14T00:38:25;2.88;;;2.13;;
62880;SDS011;48969;49.934;8.596;2023-05-14T00:40:58;11.15;;;9.20;;
62880;SDS011;48969;49.934;8.596;2023-05-14T00:43:27;11.10;;;9.55;;
62880;SDS011;48969;49.934;8.596;2023-05-14T00:45:52;10.05;;;9.07;;
62880;SDS011;48969;49.934;8.596;2023-05-14T00:48:18;10.25;;;9.27;;
62880;SDS011;48969;49.934;8.596;2023-05-14T00:50:43;2.53;;;2.33;;
62880;SDS011;48969;49.934;8.596;2023-05-14T00:53:09;9.40;;;8.50;;
62880;SDS011;48969;49.934;8.596;2023-05-14T00:55:38;9.85;;;8.95;;
62880;SDS011;48969;49.934;8.596;2023-05-14T00:58:13;9.98;;;9.15;;
62880;SDS011;48969;49.934;8.596;2023-05-14T01:00:39;1.45;;;1.45;;
62880;SDS011;48969;49.934;8.596;2023-05-14T01:03:05;10.65;;;9.60;;
62880;SDS011;48969;49.934;8.596;2023-05-14T01:08:06;3.72;;;2.80;;
62880;SDS011;48969;49.934;8.596;2023-05-14T01:10:44;5.18;;;3.40;;
62880;SDS011;48969;49.934;8.596;2023-05-14T01:13:17;12.93;;;11.82;;
62880;SDS011;48969;49.934;8.596;2023-05-14T01:15:44;12.43;;;11.25;;
62880;SDS011;48969;49.934;8.596;2023-05-14T01:18:12;13.93;;;12.63;;
62880;SDS011;48969;49.934;8.596;2023-05-14T01:20:37;13.85;;;12.55;;
62880;SDS011;48969;49.934;8.596;2023-05-14T01:23:02;10.63;;;9.63;;
62880;SDS011;48969;49.934;8.596;2023-05-14T01:25:28;10.10;;;9.07;;
62880;SDS011;48969;49.934;8.596;2023-05-14T01:27:56;9.57;;;8.77;;
62880;SDS011;48969;49.934;8.596;2023-05-14T01:30:28;9.95;;;9.02;;
62880;SDS011;48969;49.934;8.596;2023-05-14T01:32:55;10.45;;;9.45;;
62880;SDS011;48969;49.934;8.596;2023-05-14T01:35:24;3.15;;;1.95;;
62880;SDS011;48969;49.934;8.596;2023-05-14T01:37:50;9.98;;;9.18;;
62880;SDS011;48969;49.934;8.596;2023-05-14T01:40:17;11.57;;;9.90;;
62880;SDS011;48969;49.934;8.596;2023-05-14T01:42:42;10.75;;;9.75;;
62880;SDS011;48969;49.934;8.596;2023-05-14T01:45:08;11.63;;;10.50;;
62880;SDS011;48969;49.934;8.596;2023-05-14T01:47:33;11.77;;;10.68;;
62880;SDS011;48969;49.934;8.596;2023-05-14T01:49:58;12.00;;;11.00;;
62880;SDS011;48969;49.934;8.596;2023-05-14T01:52:23;12.88;;;11.68;;
62880;SDS011;48969;49.934;8.596;2023-05-14T01:54:48;13.60;;;12.30;;
62880;SDS011;48969;49.934;8.596;2023-05-14T01:57:14;13.90;;;12.60;;
62880;SDS011;48969;49.934;8.596;2023-05-14T01:59:39;14.38;;;13.10;;
62880;SDS011;48969;49.934;8.596;2023-05-14T02:02:04;14.32;;;12.93;;
62880;SDS011;48969;49.934;8.596;2023-05-14T02:04:29;14.18;;;12.95;;
62880;SDS011;48969;49.934;8.596;2023-05-14T02:06:55;14.57;;;13.27;;
62880;SDS011;48969;49.934;8.596;2023-05-14T02:09:20;14.85;;;13.55;;
62880;SDS011;48969;49.934;8.596;2023-05-14T02:11:45;14.68;;;13.27;;
62880;SDS011;48969;49.934;8.596;2023-05-14T02:14:10;14.70;;;13.40;;
62880;SDS011;48969;49.934;8.596;2023-05-14T02:16:35;15.65;;;14.07;;
62880;SDS011;48969;49.934;8.596;2023-05-14T02:19:01;15.63;;;14.18;;
62880;SDS011;48969;49.934;8.596;2023-05-14T02:21:26;16.45;;;14.93;;
62880;SDS011;48969;49.934;8.596;2023-05-14T02:23:51;2.05;;;1.95;;
62880;SDS011;48969;49.934;8.596;2023-05-14T02:26:16;15.20;;;13.80;;
62880;SDS011;48969;49.934;8.596;2023-05-14T02:28:41;1.85;;;1.75;;
62880;SDS011;48969;49.934;8.596;2023-05-14T02:31:06;16.20;;;14.80;;
62880;SDS011;48969;49.934;8.596;2023-05-14T02:33:32;2.40;;;2.25;;
62880;SDS011;48969;49.934;8.596;2023-05-14T02:35:57;15.77;;;14.35;;
62880;SDS011;48969;49.934;8.596;2023-05-14T02:38:22;15.73;;;14.32;;
62880;SDS011;48969;49.934;8.596;2023-05-14T02:40:47;15.57;;;14.15;;
62880;SDS011;48969;49.934;8.596;2023-05-14T02:43:12;15.38;;;13.98;;
62880;SDS011;48969;49.934;8.596;2023-05-14T02:45:38;15.03;;;13.73;;
62880;SDS011;48969;49.934;8.596;2023-05-14T02:48:03;2.20;;;2.10;;
62880;SDS011;48969;49.934;8.596;2023-05-14T02:50:28;15.68;;;14.15;;
62880;SDS011;48969;49.934;8.596;2023-05-14T02:52:54;14.45;;;13.25;;
62880;SDS011;48969;49.934;8.596;2023-05-14T02:55:19;14.02;;;12.73;;
62880;SDS011;48969;49.934;8.596;2023-05-14T02:57:44;5.60;;;2.80;;
62880;SDS011;48969;49.934;8.596;2023-05-14T03:00:10;3.65;;;2.50;;
62880;SDS011;48969;49.934;8.596;2023-05-14T03:02:35;13.98;;;12.77;;
62880;SDS011;48969;49.934;8.596;2023-05-14T03:05:00;14.07;;;12.57;;
62880;SDS011;48969;49.934;8.596;2023-05-14T03:07:26;13.75;;;12.55;;
62880;SDS011;48969;49.934;8.596;2023-05-14T03:09:51;13.20;;;12.10;;
62880;SDS011;48969;49.934;8.596;2023-05-14T03:12:16;14.25;;;12.85;;
62880;SDS011;48969;49.934;8.596;2023-05-14T03:14:42;4.78;;;4.15;;
62880;SDS011;48969;49.934;8.596;2023-05-14T03:17:07;13.85;;;12.55;;
62880;SDS011;48969;49.934;8.596;2023-05-14T03:19:32;13.35;;;12.15;;
62880;SDS011;48969;49.934;8.596;2023-05-14T03:21:57;7.67;;;6.90;;
62880;SDS011;48969;49.934;8.596;2023-05-14T03:24:22;14.05;;;12.77;;
62880;SDS011;48969;49.934;8.596;2023-05-14T03:26:48;14.45;;;13.07;;
62880;SDS011;48969;49.934;8.596;2023-05-14T03:29:13;14.82;;;13.32;;
62880;SDS011;48969;49.934;8.596;2023-05-14T03:31:41;15.38;;;13.95;;
62880;SDS011;48969;49.934;8.596;2023-05-14T03:34:07;14.80;;;13.40;;
62880;SDS011;48969;49.934;8.596;2023-05-14T03:36:32;14.82;;;13.38;;
62880;SDS011;48969;49.934;8.596;2023-05-14T03:39:00;7.55;;;3.92;;
62880;SDS011;48969;49.934;8.596;2023-05-14T03:41:25;4.00;;;3.45;;
62880;SDS011;48969;49.934;8.596;2023-05-14T03:43:50;4.65;;;4.00;;
62880;SDS011;48969;49.934;8.596;2023-05-14T03:46:15;13.43;;;12.32;;
62880;SDS011;48969;49.934;8.596;2023-05-14T03:48:41;12.03;;;11.00;;
62880;SDS011;48969;49.934;8.596;2023-05-14T03:51:06;13.75;;;12.25;;
62880;SDS011;48969;49.934;8.596;2023-05-14T03:53:32;13.02;;;11.85;;
62880;SDS011;48969;49.934;8.596;2023-05-14T03:55:57;11.40;;;10.40;;
62880;SDS011;48969;49.934;8.596;2023-05-14T03:58:22;11.85;;;10.75;;
62880;SDS011;48969;49.934;8.596;2023-05-14T04:00:47;11.35;;;10.25;;
62880;SDS011;48969;49.934;8.596;2023-05-14T04:03:12;11.52;;;10.20;;
62880;SDS011;48969;49.934;8.596;2023-05-14T04:05:38;11.35;;;10.35;;
62880;SDS011;48969;49.934;8.596;2023-05-14T04:08:03;11.17;;;10.13;;
62880;SDS011;48969;49.934;8.596;2023-05-14T04:10:28;10.73;;;9.73;;
62880;SDS011;48969;49.934;8.596;2023-05-14T04:12:53;11.70;;;10.60;;
62880;SDS011;48969;49.934;8.596;2023-05-14T04:15:21;9.77;;;8.98;;
62880;SDS011;48969;49.934;8.596;2023-05-14T04:17:47;12.00;;;10.90;;
62880;SDS011;48969;49.934;8.596;2023-05-14T04:20:12;11.85;;;10.70;;
62880;SDS011;48969;49.934;8.596;2023-05-14T04:22:37;11.90;;;10.80;;
62880;SDS011;48969;49.934;8.596;2023-05-14T04:25:02;10.98;;;9.90;;
62880;SDS011;48969;49.934;8.596;2023-05-14T04:27:27;10.57;;;9.45;;
62880;SDS011;48969;49.934;8.596;2023-05-14T04:29:53;11.40;;;10.35;;
62880;SDS011;48969;49.934;8.596;2023-05-14T04:32:18;3.08;;;2.78;;
62880;SDS011;48969;49.934;8.596;2023-05-14T04:34:43;11.77;;;10.57;;
62880;SDS011;48969;49.934;8.596;2023-05-14T04:37:08;12.02;;;10.82;;
62880;SDS011;48969;49.934;8.596;2023-05-14T04:39:34;11.88;;;10.77;;
62880;SDS011;48969;49.934;8.596;2023-05-14T04:41:59;11.07;;;10.07;;
62880;SDS011;48969;49.934;8.596;2023-05-14T04:44:24;10.82;;;9.82;;
62880;SDS011;48969;49.934;8.596;2023-05-14T04:46:50;10.23;;;9.35;;
62880;SDS011;48969;49.934;8.596;2023-05-14T04:49:15;10.43;;;9.48;;
62880;SDS011;48969;49.934;8.596;2023-05-14T04:51:40;10.07;;;9.18;;
62880;SDS011;48969;49.934;8.596;2023-05-14T04:54:06;10.57;;;9.57;;
62880;SDS011;48969;49.934;8.596;2023-05-14T04:56:31;10.20;;;9.20;;
62880;SDS011;48969;49.934;8.596;2023-05-14T04:58:56;10.38;;;9.48;;
62880;SDS011;48969;49.934;8.596;2023-05-14T05:01:21;1.13;;;1.13;;
62880;SDS011;48969;49.934;8.596;2023-05-14T05:03:47;1.45;;;1.38;;
62880;SDS011;48969;49.934;8.596;2023-05-14T05:06:12;11.75;;;10.70;;
62880;SDS011;48969;49.934;8.596;2023-05-14T05:08:37;13.88;;;10.52;;
62880;SDS011;48969;49.934;8.596;2023-05-14T05:11:03;12.20;;;11.10;;
62880;SDS011;48969;49.934;8.596;2023-05-14T05:13:28;11.55;;;10.52;;
62880;SDS011;48969;49.934;8.596;2023-05-14T05:15:53;11.10;;;10.00;;
62880;SDS011;48969;49.934;8.596;2023-05-14T05:18:18;10.45;;;9.55;;
62880;SDS011;48969;49.934;8.596;2023-05-14T05:20:44;11.65;;;10.65;;
62880;SDS011;48969;49.934;8.596;2023-05-14T05:23:09;11.00;;;9.90;;
62880;SDS011;48969;49.934;8.596;2023-05-14T05:25:34;11.38;;;10.43;;
62880;SDS011;48969;49.934;8.596;2023-05-14T05:27:59;11.15;;;10.05;;
62880;SDS011;48969;49.934;8.596;2023-05-14T05:30:24;1.23;;;1.13;;
62880;SDS011;48969;49.934;8.596;2023-05-14T05:32:49;10.93;;;9.93;;
62880;SDS011;48969;49.934;8.596;2023-05-14T05:35:15;11.18;;;10.18;;
62880;SDS011;48969;49.934;8.596;2023-05-14T05:37:41;11.93;;;10.82;;
62880;SDS011;48969;49.934;8.596;2023-05-14T05:40:06;11.10;;;10.05;;
62880;SDS011;48969;49.934;8.596;2023-05-14T05:42:34;12.00;;;10.90;;
62880;SDS011;48969;49.934;8.596;2023-05-14T05:45:01;12.07;;;10.88;;
62880;SDS011;48969;49.934;8.596;2023-05-14T05:47:26;11.20;;;10.27;;
62880;SDS011;48969;49.934;8.596;2023-05-14T05:49:51;12.00;;;10.93;;
62880;SDS011;48969;49.934;8.596;2023-05-14T05:52:18;13.25;;;11.95;;
62880;SDS011;48969;49.934;8.596;2023-05-14T05:54:43;11.88;;;10.80;;
62880;SDS011;48969;49.934;8.596;2023-05-14T05:57:08;12.65;;;11.45;;
62880;SDS011;48969;49.934;8.596;2023-05-14T05:59:33;7.47;;;6.75;;
62880;SDS011;48969;49.934;8.596;2023-05-14T06:01:58;12.50;;;11.30;;
62880;SDS011;48969;49.934;8.596;2023-05-14T06:04:24;21.85;;;3.83;;
62880;SDS011;48969;49.934;8.596;2023-05-14T06:06:49;4.55;;;3.45;;
62880;SDS011;48969;49.934;8.596;2023-05-14T06:09:14;11.10;;;10.10;;
62880;SDS011;48969;49.934;8.596;2023-05-14T06:11:40;11.07;;;10.07;;
62880;SDS011;48969;49.934;8.596;2023-05-14T06:14:05;10.57;;;9.57;;
62880;SDS011;48969;49.934;8.596;2023-05-14T06:16:30;11.75;;;10.40;;
62880;SDS011;48969;49.934;8.596;2023-05-14T06:18:55;10.35;;;9.35;;
62880;SDS011;48969;49.934;8.596;2023-05-14T06:21:20;10.45;;;9.35;;
62880;SDS011;48969;49.934;8.596;2023-05-14T06:23:46;9.68;;;8.88;;
62880;SDS011;48969;49.934;8.596;2023-05-14T06:26:11;9.50;;;8.55;;
62880;SDS011;48969;49.934;8.596;2023-05-14T06:28:36;9.18;;;8.38;;
62880;SDS011;48969;49.934;8.596;2023-05-14T06:31:01;9.30;;;8.40;;
62880;SDS011;48969;49.934;8.596;2023-05-14T06:33:27;8.90;;;8.00;;
62880;SDS011;48969;49.934;8.596;2023-05-14T06:35:58;8.60;;;7.75;;
62880;SDS011;48969;49.934;8.596;2023-05-14T06:38:27;9.18;;;8.27;;
62880;SDS011;48969;49.934;8.596;2023-05-14T06:40:52;7.80;;;7.10;;
62880;SDS011;48969;49.934;8.596;2023-05-14T06:43:17;9.30;;;7.78;;
62880;SDS011;48969;49.934;8.596;2023-05-14T06:45:42;8.82;;;7.93;;
62880;SDS011;48969;49.934;8.596;2023-05-14T06:48:08;8.35;;;7.55;;
62880;SDS011;48969;49.934;8.596;2023-05-14T06:50:34;8.57;;;7.47;;
62880;SDS011;48969;49.934;8.596;2023-05-14T06:52:59;7.10;;;6.47;;
62880;SDS011;48969;49.934;8.596;2023-05-14T06:55:24;7.88;;;6.30;;
62880;SDS011;48969;49.934;8.596;2023-05-14T06:57:50;6.82;;;5.82;;
62880;SDS011;48969;49.934;8.596;2023-05-14T07:00:15;6.97;;;6.28;;
62880;SDS011;48969;49.934;8.596;2023-05-14T07:02:40;6.85;;;5.95;;
62880;SDS011;48969;49.934;8.596;2023-05-14T07:05:05;5.97;;;5.35;;
62880;SDS011;48969;49.934;8.596;2023-05-14T07:07:32;6.05;;;5.20;;
62880;SDS011;48969;49.934;8.596;2023-05-14T07:09:57;7.45;;;5.18;;
62880;SDS011;48969;49.934;8.596;2023-05-14T07:12:22;5.45;;;4.85;;
62880;SDS011;48969;49.934;8.596;2023-05-14T07:14:48;7.95;;;5.22;;
62880;SDS011;48969;49.934;8.596;2023-05-14T07:17:13;5.55;;;4.68;;
62880;SDS011;48969;49.934;8.596;2023-05-14T07:19:39;5.15;;;4.65;;
62880;SDS011;48969;49.934;8.596;2023-05-14T07:22:04;5.63;;;5.03;;
62880;SDS011;48969;49.934;8.596;2023-05-14T07:24:30;6.00;;;4.50;;
62880;SDS011;48969;49.934;8.596;2023-05-14T07:26:55;5.63;;;5.03;;
62880;SDS011;48969;49.934;8.596;2023-05-14T07:29:21;5.85;;;4.63;;
62880;SDS011;48969;49.934;8.596;2023-05-14T07:31:46;5.10;;;4.60;;
62880;SDS011;48969;49.934;8.596;2023-05-14T07:34:11;6.13;;;4.90;;
62880;SDS011;48969;49.934;8.596;2023-05-14T07:36:39;5.30;;;4.80;;
62880;SDS011;48969;49.934;8.596;2023-05-14T07:39:05;5.83;;;5.33;;
62880;SDS011;48969;49.934;8.596;2023-05-14T07:41:30;5.57;;;5.07;;
62880;SDS011;48969;49.934;8.596;2023-05-14T07:43:55;6.13;;;5.60;;
62880;SDS011;48969;49.934;8.596;2023-05-14T07:46:20;5.43;;;4.87;;
62880;SDS011;48969;49.934;8.596;2023-05-14T07:48:45;7.07;;;5.25;;
62880;SDS011;48969;49.934;8.596;2023-05-14T07:51:11;5.50;;;5.00;;
62880;SDS011;48969;49.934;8.596;2023-05-14T07:53:36;5.53;;;4.90;;
62880;SDS011;48969;49.934;8.596;2023-05-14T07:56:01;5.55;;;5.05;;
62880;SDS011;48969;49.934;8.596;2023-05-14T07:58:26;5.70;;;5.20;;
62880;SDS011;48969;49.934;8.596;2023-05-14T08:00:52;5.90;;;5.30;;
62880;SDS011;48969;49.934;8.596;2023-05-14T08:03:18;5.45;;;4.95;;
62880;SDS011;48969;49.934;8.596;2023-05-14T08:05:43;7.53;;;5.40;;
62880;SDS011;48969;49.934;8.596;2023-05-14T08:08:08;5.95;;;5.13;;
62880;SDS011;48969;49.934;8.596;2023-05-14T08:10:33;6.63;;;5.70;;
62880;SDS011;48969;49.934;8.596;2023-05-14T08:12:58;8.27;;;6.30;;
62880;SDS011;48969;49.934;8.596;2023-05-14T08:15:23;6.05;;;5.43;;
62880;SDS011;48969;49.934;8.596;2023-05-14T08:17:49;5.75;;;5.25;;
62880;SDS011;48969;49.934;8.596;2023-05-14T08:20:14;6.43;;;5.82;;
62880;SDS011;48969;49.934;8.596;2023-05-14T08:22:39;6.47;;;5.80;;
62880;SDS011;48969;49.934;8.596;2023-05-14T08:25:05;6.00;;;5.40;;
62880;SDS011;48969;49.934;8.596;2023-05-14T08:27:31;6.75;;;6.05;;
62880;SDS011;48969;49.934;8.596;2023-05-14T08:29:57;8.02;;;6.05;;
62880;SDS011;48969;49.934;8.596;2023-05-14T08:32:22;6.60;;;5.95;;
62880;SDS011;48969;49.934;8.596;2023-05-14T08:34:47;6.63;;;5.80;;
62880;SDS011;48969;49.934;8.596;2023-05-14T08:37:12;6.90;;;5.47;;
62880;SDS011;48969;49.934;8.596;2023-05-14T08:39:37;6.47;;;5.85;;
62880;SDS011;48969;49.934;8.596;2023-05-14T08:42:03;6.97;;;5.40;;
62880;SDS011;48969;49.934;8.596;2023-05-14T08:44:38;6.57;;;5.50;;
62880;SDS011;48969;49.934;8.596;2023-05-14T08:47:04;6.18;;;5.22;;
62880;SDS011;48969;49.934;8.596;2023-05-14T08:49:40;6.28;;;5.38;;
62880;SDS011;48969;49.934;8.596;2023-05-14T08:52:05;6.05;;;4.90;;
62880;SDS011;48969;49.934;8.596;2023-05-14T08:54:32;6.32;;;5.38;;
62880;SDS011;48969;49.934;8.596;2023-05-14T08:56:58;6.32;;;5.35;;
62880;SDS011;48969;49.934;8.596;2023-05-14T08:59:23;7.43;;;6.30;;
62880;SDS011;48969;49.934;8.596;2023-05-14T09:01:50;6.75;;;5.75;;
62880;SDS011;48969;49.934;8.596;2023-05-14T09:04:23;6.97;;;5.47;;
62880;SDS011;48969;49.934;8.596;2023-05-14T09:06:49;6.05;;;5.45;;
62880;SDS011;48969;49.934;8.596;2023-05-14T09:09:15;6.38;;;5.38;;
62880;SDS011;48969;49.934;8.596;2023-05-14T09:11:41;6.05;;;5.38;;
62880;SDS011;48969;49.934;8.596;2023-05-14T09:14:06;6.07;;;5.00;;
62880;SDS011;48969;49.934;8.596;2023-05-14T09:16:31;7.85;;;5.90;;
62880;SDS011;48969;49.934;8.596;2023-05-14T09:18:56;5.43;;;4.93;;
62880;SDS011;48969;49.934;8.596;2023-05-14T09:21:22;6.70;;;5.93;;
62880;SDS011;48969;49.934;8.596;2023-05-14T09:23:53;6.20;;;5.60;;
62880;SDS011;48969;49.934;8.596;2023-05-14T09:26:22;7.07;;;6.13;;
62880;SDS011;48969;49.934;8.596;2023-05-14T09:28:47;7.20;;;6.47;;
62880;SDS011;48969;49.934;8.596;2023-05-14T09:31:12;8.00;;;6.03;;
62880;SDS011;48969;49.934;8.596;2023-05-14T09:33:38;5.57;;;5.00;;
62880;SDS011;48969;49.934;8.596;2023-05-14T09:36:03;5.80;;;5.03;;
62880;SDS011;48969;49.934;8.596;2023-05-14T09:38:31;5.30;;;4.80;;
62880;SDS011;48969;49.934;8.596;2023-05-14T09:40:57;7.60;;;4.75;;
62880;SDS011;48969;49.934;8.596;2023-05-14T09:43:22;5.18;;;4.63;;
62880;SDS011;48969;49.934;8.596;2023-05-14T09:45:48;5.18;;;4.30;;
62880;SDS011;48969;49.934;8.596;2023-05-14T09:48:13;6.07;;;4.10;;
62880;SDS011;48969;49.934;8.596;2023-05-14T09:50:42;4.70;;;4.30;;
62880;SDS011;48969;49.934;8.596;2023-05-14T09:53:07;4.93;;;4.43;;
62880;SDS011;48969;49.934;8.596;2023-05-14T09:55:32;4.17;;;3.77;;
62880;SDS011;48969;49.934;8.596;2023-05-14T09:57:57;4.57;;;3.83;;
62880;SDS011;48969;49.934;8.596;2023-05-14T10:00:22;4.60;;;4.10;;
62880;SDS011;48969;49.934;8.596;2023-05-14T10:02:48;5.10;;;3.80;;
62880;SDS011;48969;49.934;8.596;2023-05-14T10:05:14;5.22;;;4.05;;
62880;SDS011;48969;49.934;8.596;2023-05-14T10:07:50;5.15;;;3.90;;
62880;SDS011;48969;49.934;8.596;2023-05-14T10:10:18;4.20;;;3.80;;
62880;SDS011;48969;49.934;8.596;2023-05-14T10:12:45;4.20;;;3.80;;
62880;SDS011;48969;49.934;8.596;2023-05-14T10:15:15;4.88;;;3.88;;
62880;SDS011;48969;49.934;8.596;2023-05-14T10:17:43;6.18;;;4.30;;
62880;SDS011;48969;49.934;8.596;2023-05-14T10:20:10;4.47;;;4.07;;
62880;SDS011;48969;49.934;8.596;2023-05-14T10:22:38;5.90;;;3.83;;
62880;SDS011;48969;49.934;8.596;2023-05-14T10:25:04;4.53;;;3.50;;
62880;SDS011;48969;49.934;8.596;2023-05-14T10:27:32;4.75;;;3.55;;
62880;SDS011;48969;49.934;8.596;2023-05-14T10:29:58;3.90;;;3.50;;
62880;SDS011;48969;49.934;8.596;2023-05-14T10:32:23;4.45;;;3.42;;
62880;SDS011;48969;49.934;8.596;2023-05-14T10:34:50;3.42;;;3.00;;
62880;SDS011;48969;49.934;8.596;2023-05-14T10:37:16;3.55;;;3.20;;
62880;SDS011;48969;49.934;8.596;2023-05-14T10:39:49;3.63;;;3.33;;
62880;SDS011;48969;49.934;8.596;2023-05-14T10:42:21;4.07;;;3.70;;
62880;SDS011;48969;49.934;8.596;2023-05-14T10:44:48;3.95;;;3.50;;
62880;SDS011;48969;49.934;8.596;2023-05-14T10:47:14;3.28;;;2.97;;
62880;SDS011;48969;49.934;8.596;2023-05-14T10:49:41;4.53;;;3.25;;
62880;SDS011;48969;49.934;8.596;2023-05-14T10:52:07;3.95;;;3.60;;
62880;SDS011;48969;49.934;8.596;2023-05-14T10:54:36;5.03;;;3.65;;
62880;SDS011;48969;49.934;8.596;2023-05-14T10:57:02;3.78;;;3.28;;
62880;SDS011;48969;49.934;8.596;2023-05-14T10:59:27;4.07;;;3.20;;
62880;SDS011;48969;49.934;8.596;2023-05-14T11:01:52;3.67;;;3.08;;
62880;SDS011;48969;49.934;8.596;2023-05-14T11:04:18;3.40;;;3.10;;
62880;SDS011;48969;49.934;8.596;2023-05-14T11:06:43;3.28;;;2.97;;
62880;SDS011;48969;49.934;8.596;2023-05-14T11:09:09;3.42;;;3.13;;
62880;SDS011;48969;49.934;8.596;2023-05-14T11:11:34;4.10;;;3.13;;
62880;SDS011;48969;49.934;8.596;2023-05-14T11:13:59;3.67;;;3.35;;
62880;SDS011;48969;49.934;8.596;2023-05-14T11:16:26;3.95;;;3.63;;
62880;SDS011;48969;49.934;8.596;2023-05-14T11:19:01;3.60;;;3.30;;
62880;SDS011;48969;49.934;8.596;2023-05-14T11:21:27;3.60;;;3.20;;
62880;SDS011;48969;49.934;8.596;2023-05-14T11:23:53;3.30;;;2.90;;
62880;SDS011;48969;49.934;8.596;2023-05-14T11:26:18;5.03;;;3.60;;
62880;SDS011;48969;49.934;8.596;2023-05-14T11:28:43;3.83;;;3.22;;
62880;SDS011;48969;49.934;8.596;2023-05-14T11:31:09;3.50;;;3.17;;
62880;SDS011;48969;49.934;8.596;2023-05-14T11:33:34;3.40;;;2.80;;
62880;SDS011;48969;49.934;8.596;2023-05-14T11:36:00;2.90;;;2.63;;
62880;SDS011;48969;49.934;8.596;2023-05-14T11:38:25;2.80;;;2.55;;
62880;SDS011;48969;49.934;8.596;2023-05-14T11:40:51;2.70;;;2.50;;
62880;SDS011;48969;49.934;8.596;2023-05-14T11:43:17;3.25;;;2.95;;
62880;SDS011;48969;49.934;8.596;2023-05-14T11:45:42;4.63;;;3.00;;
62880;SDS011;48969;49.934;8.596;2023-05-14T11:48:13;4.45;;;2.88;;
62880;SDS011;48969;49.934;8.596;2023-05-14T11:50:43;2.97;;;2.70;;
62880;SDS011;48969;49.934;8.596;2023-05-14T11:53:09;2.78;;;2.58;;
62880;SDS011;48969;49.934;8.596;2023-05-14T11:55:34;3.15;;;2.85;;
62880;SDS011;48969;49.934;8.596;2023-05-14T11:58:00;3.10;;;2.70;;
62880;SDS011;48969;49.934;8.596;2023-05-14T12:00:25;2.95;;;2.75;;
62880;SDS011;48969;49.934;8.596;2023-05-14T12:02:50;3.20;;;2.80;;
62880;SDS011;48969;49.934;8.596;2023-05-14T12:05:16;3.40;;;2.78;;
62880;SDS011;48969;49.934;8.596;2023-05-14T12:07:43;3.65;;;3.08;;
62880;SDS011;48969;49.934;8.596;2023-05-14T12:10:10;3.20;;;2.90;;
62880;SDS011;48969;49.934;8.596;2023-05-14T12:12:36;3.33;;;2.95;;
62880;SDS011;48969;49.934;8.596;2023-05-14T12:15:01;2.75;;;2.55;;
62880;SDS011;48969;49.934;8.596;2023-05-14T12:17:26;3.60;;;3.30;;
62880;SDS011;48969;49.934;8.596;2023-05-14T12:19:52;3.10;;;2.90;;
62880;SDS011;48969;49.934;8.596;2023-05-14T12:22:18;3.33;;;3.03;;
62880;SDS011;48969;49.934;8.596;2023-05-14T12:24:53;3.00;;;2.63;;
62880;SDS011;48969;49.934;8.596;2023-05-14T12:27:20;2.80;;;2.60;;
62880;SDS011;48969;49.934;8.596;2023-05-14T12:29:46;2.78;;;2.58;;
62880;SDS011;48969;49.934;8.596;2023-05-14T12:32:11;3.60;;;3.17;;
62880;SDS011;48969;49.934;8.596;2023-05-14T12:34:36;3.83;;;2.97;;
62880;SDS011;48969;49.934;8.596;2023-05-14T12:37:01;2.80;;;2.60;;
62880;SDS011;48969;49.934;8.596;2023-05-14T12:39:28;3.20;;;2.90;;
62880;SDS011;48969;49.934;8.596;2023-05-14T12:41:53;3.53;;;2.80;;
62880;SDS011;48969;49.934;8.596;2023-05-14T12:44:19;3.63;;;3.03;;
62880;SDS011;48969;49.934;8.596;2023-05-14T12:46:46;5.95;;;3.58;;
62880;SDS011;48969;49.934;8.596;2023-05-14T12:49:11;3.80;;;3.28;;
62880;SDS011;48969;49.934;8.596;2023-05-14T12:51:36;3.30;;;3.00;;
62880;SDS011;48969;49.934;8.596;2023-05-14T12:54:02;3.75;;;3.20;;
62880;SDS011;48969;49.934;8.596;2023-05-14T12:56:27;5.35;;;3.33;;
62880;SDS011;48969;49.934;8.596;2023-05-14T12:58:53;4.10;;;2.97;;
62880;SDS011;48969;49.934;8.596;2023-05-14T13:01:18;3.38;;;3.08;;
62880;SDS011;48969;49.934;8.596;2023-05-14T13:03:44;5.30;;;3.43;;
62880;SDS011;48969;49.934;8.596;2023-05-14T13:06:09;3.42;;;3.13;;
62880;SDS011;48969;49.934;8.596;2023-05-14T13:08:34;4.07;;;3.17;;
62880;SDS011;48969;49.934;8.596;2023-05-14T13:10:59;5.25;;;3.25;;
62880;SDS011;48969;49.934;8.596;2023-05-14T13:13:27;3.10;;;2.90;;
62880;SDS011;48969;49.934;8.596;2023-05-14T13:15:52;4.60;;;3.38;;
62880;SDS011;48969;49.934;8.596;2023-05-14T13:18:18;3.35;;;3.05;;
62880;SDS011;48969;49.934;8.596;2023-05-14T13:20:44;3.30;;;3.00;;
62880;SDS011;48969;49.934;8.596;2023-05-14T13:23:09;3.85;;;3.30;;
62880;SDS011;48969;49.934;8.596;2023-05-14T13:25:34;3.65;;;3.08;;
62880;SDS011;48969;49.934;8.596;2023-05-14T13:28:00;4.70;;;3.50;;
62880;SDS011;48969;49.934;8.596;2023-05-14T13:30:25;3.50;;;3.20;;
62880;SDS011;48969;49.934;8.596;2023-05-14T13:32:50;3.70;;;3.15;;
62880;SDS011;48969;49.934;8.596;2023-05-14T13:35:15;4.15;;;3.30;;
62880;SDS011;48969;49.934;8.596;2023-05-14T13:37:44;3.10;;;2.75;;
62880;SDS011;48969;49.934;8.596;2023-05-14T13:40:09;4.07;;;3.25;;
62880;SDS011;48969;49.934;8.596;2023-05-14T13:42:35;3.28;;;2.97;;
62880;SDS011;48969;49.934;8.596;2023-05-14T13:45:01;3.90;;;2.88;;
62880;SDS011;48969;49.934;8.596;2023-05-14T13:47:26;3.75;;;3.00;;
62880;SDS011;48969;49.934;8.596;2023-05-14T13:49:52;2.85;;;2.65;;
62880;SDS011;48969;49.934;8.596;2023-05-14T13:52:17;3.15;;;2.85;;
62880;SDS011;48969;49.934;8.596;2023-05-14T13:54:43;3.20;;;2.90;;
62880;SDS011;48969;49.934;8.596;2023-05-14T13:57:08;2.63;;;2.42;;
62880;SDS011;48969;49.934;8.596;2023-05-14T13:59:33;3.35;;;2.80;;
62880;SDS011;48969;49.934;8.596;2023-05-14T14:01:58;3.17;;;2.63;;
62880;SDS011;48969;49.934;8.596;2023-05-14T14:04:23;2.80;;;2.60;;
62880;SDS011;48969;49.934;8.596;2023-05-14T14:06:52;3.25;;;2.95;;
62880;SDS011;48969;49.934;8.596;2023-05-14T14:09:18;3.28;;;2.97;;
62880;SDS011;48969;49.934;8.596;2023-05-14T14:11:43;3.20;;;2.90;;
62880;SDS011;48969;49.934;8.596;2023-05-14T14:14:08;3.20;;;2.90;;
62880;SDS011;48969;49.934;8.596;2023-05-14T14:16:33;2.83;;;2.42;;
62880;SDS011;48969;49.934;8.596;2023-05-14T14:18:58;3.40;;;2.75;;
62880;SDS011;48969;49.934;8.596;2023-05-14T14:21:24;3.40;;;3.00;;
62880;SDS011;48969;49.934;8.596;2023-05-14T14:23:49;3.10;;;2.80;;
62880;SDS011;48969;49.934;8.596;2023-05-14T14:26:14;3.90;;;2.53;;
62880;SDS011;48969;49.934;8.596;2023-05-14T14:28:39;2.85;;;2.55;;
62880;SDS011;48969;49.934;8.596;2023-05-14T14:31:05;2.60;;;2.40;;
62880;SDS011;48969;49.934;8.596;2023-05-14T14:33:30;2.72;;;2.45;;
62880;SDS011;48969;49.934;8.596;2023-05-14T14:35:55;2.73;;;2.23;;